C2016 KVQQ-KOPF
Flight info
| Callsign | C2016 |
|---|---|
| Flight time | N/A |
| Altitude | 17500 |
| Route | VFR |
| Aircraft | C30J/M-V/N |
Departure
| Time | 2026-04-26 18:48 |
|---|---|
| Airport | Cecil Airport (KVQQ) |
Arrival
| Time | N/A |
|---|---|
| Airport | Miami-Opa Locka Executive Airport (KOPF) |
| Time | Latitude | Longitude | Altitude | Speed | Heading |
|---|---|---|---|---|---|
| 2026-04-26 18:47 | 30.19360 | -81.87068 | 2625 ft | 168 kts | 174° |
| 2026-04-26 18:48 | 30.18179 | -81.86866 | 3380 ft | 176 kts | 173° |
| 2026-04-26 18:48 | 30.16924 | -81.86653 | 4228 ft | 188 kts | 174° |
| 2026-04-26 18:48 | 30.15602 | -81.86427 | 5152 ft | 195 kts | 173° |
| 2026-04-26 18:48 | 30.14703 | -81.86270 | 5791 ft | 199 kts | 173° |
| 2026-04-26 18:49 | 30.12860 | -81.85930 | 7065 ft | 205 kts | 172° |
| 2026-04-26 18:49 | 30.11455 | -81.85610 | 8046 ft | 207 kts | 171° |
| 2026-04-26 18:49 | 30.10039 | -81.85265 | 9058 ft | 209 kts | 171° |
| 2026-04-26 18:49 | 30.09096 | -81.85035 | 9750 ft | 209 kts | 171° |
| 2026-04-26 18:50 | 30.07194 | -81.84574 | 11028 ft | 209 kts | 171° |
| 2026-04-26 18:50 | 30.06252 | -81.84348 | 11658 ft | 208 kts | 171° |
| 2026-04-26 18:50 | 30.04835 | -81.84011 | 12606 ft | 208 kts | 171° |
| 2026-04-26 18:50 | 30.03425 | -81.83677 | 13587 ft | 207 kts | 172° |
| 2026-04-26 18:51 | 30.02020 | -81.83346 | 14444 ft | 206 kts | 172° |
| 2026-04-26 18:51 | 30.00622 | -81.83017 | 15264 ft | 204 kts | 172° |
| 2026-04-26 18:51 | 29.99238 | -81.82691 | 16082 ft | 202 kts | 173° |
| 2026-04-26 18:51 | 29.97868 | -81.82369 | 16878 ft | 200 kts | 174° |
| 2026-04-26 18:52 | 29.96463 | -81.82044 | 17383 ft | 219 kts | 174° |
| 2026-04-26 18:52 | 29.94858 | -81.81682 | 17482 ft | 251 kts | 173° |
| 2026-04-26 18:52 | 29.93040 | -81.81262 | 17461 ft | 280 kts | 172° |
| 2026-04-26 18:52 | 29.91047 | -81.80792 | 17446 ft | 303 kts | 172° |
| 2026-04-26 18:53 | 29.88957 | -81.80296 | 17444 ft | 318 kts | 172° |
| 2026-04-26 18:53 | 29.86745 | -81.79773 | 17442 ft | 330 kts | 172° |
| 2026-04-26 18:53 | 29.84462 | -81.79235 | 17435 ft | 339 kts | 172° |
| 2026-04-26 18:53 | 29.82126 | -81.78687 | 17438 ft | 345 kts | 172° |
| 2026-04-26 18:54 | 29.79759 | -81.78133 | 17439 ft | 349 kts | 172° |
| 2026-04-26 18:54 | 29.77358 | -81.77572 | 17441 ft | 353 kts | 172° |
| 2026-04-26 18:54 | 29.74945 | -81.77008 | 17436 ft | 354 kts | 172° |
| 2026-04-26 18:54 | 29.72523 | -81.76442 | 17435 ft | 355 kts | 172° |
| 2026-04-26 18:55 | 29.70101 | -81.75878 | 17435 ft | 356 kts | 172° |
| 2026-04-26 18:55 | 29.67668 | -81.75311 | 17434 ft | 356 kts | 172° |
| 2026-04-26 18:55 | 29.65240 | -81.74746 | 17445 ft | 356 kts | 172° |
| 2026-04-26 18:55 | 29.62846 | -81.74189 | 17500 ft | 355 kts | 172° |
| 2026-04-26 18:56 | 29.60424 | -81.73626 | 17505 ft | 355 kts | 172° |
| 2026-04-26 18:56 | 29.57987 | -81.73060 | 17502 ft | 356 kts | 172° |
| 2026-04-26 18:56 | 29.55560 | -81.72496 | 17496 ft | 356 kts | 172° |
| 2026-04-26 18:56 | 29.53126 | -81.71931 | 17501 ft | 357 kts | 172° |
| 2026-04-26 18:57 | 29.50686 | -81.71365 | 17499 ft | 357 kts | 172° |